Time;durP1;ratioP1;P1;durP2;ratioP2;P2;SDS_P1;SDS_P2;PMS_P1;PMS_P2;Temp;Humidity;BMP_temperature;BMP_pressure;BME280_temperature;BME280_humidity;BME280_pressure;Samples;Min_cycle;Max_cycle;Signal;HPM_P1;HPM_P2
2022/09/26 00:01:22;;;;;;;7.82;4.03;;;;;;;;;;6129591;23;20026;-78
2022/09/26 00:03:50;;;;;;;9.63;4.95;;;;;;;;;;6132245;23;20095;-77
2022/09/26 00:06:18;;;;;;;9.45;3.90;;;;;;;;;;6158634;23;20864;-77
2022/09/26 00:08:45;;;;;;;11.88;4.38;;;;;;;;;;6133133;23;20479;-78
2022/09/26 00:11:12;;;;;;;8.50;4.53;;;;;;;;;;6132410;23;20030;-78
2022/09/26 00:13:39;;;;;;;9.18;4.22;;;;;;;;;;6132384;23;20160;-78
2022/09/26 00:16:07;;;;;;;9.25;4.10;;;;;;;;;;6133103;23;20471;-78
2022/09/26 00:18:33;;;;;;;11.25;3.95;;;;;;;;;;6159485;23;20441;-78
2022/09/26 00:21:10;;;;;;;8.82;4.43;;;;;;;;;;6133834;23;20065;-77
2022/09/26 00:23:37;;;;;;;11.82;4.00;;;;;;;;;;6159599;23;20034;-78
2022/09/26 00:26:03;;;;;;;11.85;5.28;;;;;;;;;;6134841;23;20014;-78
2022/09/26 00:28:30;;;;;;;10.15;3.83;;;;;;;;;;6136190;23;20021;-79
2022/09/26 00:31:01;;;;;;;7.97;3.80;;;;;;;;;;6135911;23;20030;-78
2022/09/26 00:33:27;;;;;;;8.90;3.65;;;;;;;;;;6162723;23;20034;-78
2022/09/26 00:35:54;;;;;;;8.30;3.58;;;;;;;;;;6160856;23;20022;-79
2022/09/26 00:38:21;;;;;;;10.63;3.70;;;;;;;;;;6135944;23;20026;-79
2022/09/26 00:40:47;;;;;;;8.88;3.80;;;;;;;;;;6163278;23;20025;-78
2022/09/26 00:43:34;;;;;;;8.70;3.63;;;;;;;;;;6163345;23;20034;-78
2022/09/26 00:46:19;;;;;;;7.53;3.20;;;;;;;;;;6136203;23;20018;-78
2022/09/26 00:48:48;;;;;;;9.45;3.97;;;;;;;;;;6161205;23;20033;-78
2022/09/26 00:51:14;;;;;;;8.77;3.50;;;;;;;;;;6161510;23;20018;-78
2022/09/26 00:53:42;;;;;;;7.00;3.45;;;;;;;;;;6137109;23;20030;-79
2022/09/26 00:56:21;;;;;;;7.97;2.90;;;;;;;;;;6134655;23;20030;-80
2022/09/26 00:58:50;;;;;;;8.32;2.83;;;;;;;;;;6134549;23;20148;-78
2022/09/26 01:01:17;;;;;;;8.50;2.78;;;;;;;;;;6159649;23;20094;-79
2022/09/26 01:03:44;;;;;;;6.38;2.92;;;;;;;;;;6160491;23;20388;-79
2022/09/26 01:06:10;;;;;;;6.88;2.60;;;;;;;;;;6173095;23;20040;-82
2022/09/26 01:08:42;;;;;;;7.60;2.70;;;;;;;;;;6190854;23;20026;-80
2022/09/26 01:11:09;;;;;;;6.80;2.80;;;;;;;;;;6189576;23;20030;-80
2022/09/26 01:13:42;;;;;;;5.13;2.60;;;;;;;;;;6189335;23;20810;-79
2022/09/26 01:16:09;;;;;;;6.72;3.05;;;;;;;;;;6191364;23;20029;-81
2022/09/26 01:18:35;;;;;;;6.63;2.78;;;;;;;;;;6190924;23;20010;-80
2022/09/26 01:21:22;;;;;;;10.60;2.95;;;;;;;;;;6189549;23;20026;-80
2022/09/26 01:24:00;;;;;;;7.68;3.05;;;;;;;;;;6190697;23;20022;-80
2022/09/26 01:26:41;;;;;;;11.55;2.88;;;;;;;;;;6187679;23;20065;-78
2022/09/26 01:29:10;;;;;;;7.22;3.10;;;;;;;;;;6187804;23;20029;-81
2022/09/26 01:31:39;;;;;;;7.72;3.58;;;;;;;;;;6187212;23;20116;-78
2022/09/26 01:34:19;;;;;;;8.15;2.85;;;;;;;;;;6189680;23;20769;-81
2022/09/26 01:36:48;;;;;;;8.18;3.60;;;;;;;;;;6188474;23;20879;-78
2022/09/26 01:39:17;;;;;;;7.80;3.25;;;;;;;;;;6187941;23;20017;-79
2022/09/26 01:41:56;;;;;;;10.77;3.25;;;;;;;;;;6190116;23;20029;-81
2022/09/26 01:44:26;;;;;;;8.25;3.38;;;;;;;;;;6187748;23;20025;-78
2022/09/26 01:47:10;;;;;;;8.00;3.35;;;;;;;;;;6187904;23;20033;-82
2022/09/26 01:49:43;;;;;;;7.45;3.08;;;;;;;;;;6190197;23;20025;-81
2022/09/26 01:52:33;;;;;;;8.05;3.22;;;;;;;;;;6188074;23;20029;-79
2022/09/26 01:55:02;;;;;;;8.13;3.28;;;;;;;;;;6189780;23;20038;-80
2022/09/26 01:57:33;;;;;;;6.28;3.33;;;;;;;;;;6188948;23;20014;-80
2022/09/26 02:00:01;;;;;;;6.57;3.30;;;;;;;;;;6189368;23;20032;-80
2022/09/26 02:02:30;;;;;;;7.50;3.15;;;;;;;;;;6189098;23;20025;-81
2022/09/26 02:05:00;;;;;;;10.25;3.40;;;;;;;;;;6182127;23;20470;-78
2022/09/26 02:07:32;;;;;;;9.63;4.10;;;;;;;;;;6135442;23;20030;-79
2022/09/26 02:10:03;;;;;;;10.48;3.83;;;;;;;;;;6133565;23;20089;-80
2022/09/26 02:12:31;;;;;;;9.77;3.42;;;;;;;;;;6158647;23;20026;-79
2022/09/26 02:15:01;;;;;;;9.68;3.72;;;;;;;;;;6157895;23;20030;-81
2022/09/26 02:17:31;;;;;;;9.35;3.72;;;;;;;;;;6161053;23;20082;-80
2022/09/26 02:19:59;;;;;;;9.13;3.78;;;;;;;;;;6159834;23;20021;-81
2022/09/26 02:22:29;;;;;;;8.05;3.78;;;;;;;;;;6159948;23;20041;-80
2022/09/26 02:24:56;;;;;;;9.75;4.07;;;;;;;;;;6162868;23;20033;-79
2022/09/26 02:27:24;;;;;;;9.95;4.22;;;;;;;;;;6164818;23;20018;-81
2022/09/26 02:29:50;;;;;;;9.43;3.85;;;;;;;;;;6138265;23;20033;-79
2022/09/26 02:32:19;;;;;;;8.48;4.40;;;;;;;;;;6137411;23;20053;-79
2022/09/26 02:34:47;;;;;;;12.30;5.00;;;;;;;;;;6162732;23;20030;-79
2022/09/26 02:37:14;;;;;;;9.77;4.40;;;;;;;;;;6138497;23;20033;-79
2022/09/26 02:39:41;;;;;;;10.85;4.25;;;;;;;;;;6164125;23;20018;-79
2022/09/26 02:42:16;;;;;;;15.95;4.60;;;;;;;;;;6137577;23;20021;-78
2022/09/26 02:44:42;;;;;;;12.23;4.63;;;;;;;;;;6138522;23;20045;-79
2022/09/26 02:47:21;;;;;;;8.98;4.80;;;;;;;;;;6137104;23;20034;-79
2022/09/26 02:49:59;;;;;;;9.48;4.68;;;;;;;;;;6139134;23;20037;-79
2022/09/26 02:52:29;;;;;;;11.57;5.03;;;;;;;;;;6137746;23;20085;-79
2022/09/26 02:55:09;;;;;;;11.02;4.93;;;;;;;;;;6163622;23;20018;-79
2022/09/26 02:57:41;;;;;;;13.07;4.97;;;;;;;;;;6136440;23;20022;-78
2022/09/26 03:00:12;;;;;;;12.32;5.30;;;;;;;;;;6160843;23;20033;-79
2022/09/26 03:03:02;;;;;;;11.73;5.00;;;;;;;;;;6161453;23;20026;-79
2022/09/26 03:05:29;;;;;;;7.65;4.28;;;;;;;;;;6146852;23;20021;-79
2022/09/26 03:08:10;;;;;;;12.85;5.75;;;;;;;;;;6190432;23;20025;-79
2022/09/26 03:10:37;;;;;;;12.55;5.07;;;;;;;;;;6189961;23;20018;-79
2022/09/26 03:13:05;;;;;;;9.25;5.10;;;;;;;;;;6188216;23;20025;-79
2022/09/26 03:15:32;;;;;;;10.30;5.00;;;;;;;;;;6189284;23;20469;-79
2022/09/26 03:18:00;;;;;;;12.13;4.68;;;;;;;;;;6188516;23;20018;-79
2022/09/26 03:20:26;;;;;;;10.45;5.10;;;;;;;;;;6189522;23;20025;-80
2022/09/26 03:22:53;;;;;;;13.95;4.40;;;;;;;;;;6186636;23;20947;-79
2022/09/26 03:25:21;;;;;;;8.52;3.97;;;;;;;;;;6187772;23;20034;-79
2022/09/26 03:27:47;;;;;;;11.80;4.35;;;;;;;;;;6188251;23;20030;-78
2022/09/26 03:30:15;;;;;;;9.23;4.68;;;;;;;;;;6187858;23;20040;-80
2022/09/26 03:32:41;;;;;;;11.05;5.53;;;;;;;;;;6187490;23;20258;-79
2022/09/26 03:35:08;;;;;;;11.85;3.72;;;;;;;;;;6185699;23;20029;-79
2022/09/26 03:37:36;;;;;;;11.07;4.63;;;;;;;;;;6186322;23;20030;-79
2022/09/26 03:40:03;;;;;;;9.60;4.30;;;;;;;;;;6186337;23;20028;-79
2022/09/26 03:42:32;;;;;;;11.18;4.53;;;;;;;;;;6187082;23;20016;-79
2022/09/26 03:44:59;;;;;;;8.82;4.82;;;;;;;;;;6187076;23;20030;-80
2022/09/26 03:47:25;;;;;;;10.18;4.22;;;;;;;;;;6186179;23;20025;-79
2022/09/26 03:49:52;;;;;;;8.88;4.30;;;;;;;;;;6185421;23;20880;-79
2022/09/26 03:52:18;;;;;;;11.95;4.90;;;;;;;;;;6185873;23;20025;-81
2022/09/26 03:54:45;;;;;;;9.90;3.97;;;;;;;;;;6186517;23;20052;-80
2022/09/26 03:57:12;;;;;;;9.07;4.20;;;;;;;;;;6186519;23;20073;-80
2022/09/26 03:59:38;;;;;;;9.98;4.05;;;;;;;;;;6185795;23;20026;-80
2022/09/26 04:02:04;;;;;;;9.27;4.13;;;;;;;;;;6183983;23;20029;-80
2022/09/26 04:04:32;;;;;;;11.50;4.93;;;;;;;;;;6184108;23;20557;-79
2022/09/26 04:06:59;;;;;;;9.10;4.63;;;;;;;;;;6161218;23;20026;-83
2022/09/26 04:09:25;;;;;;;10.95;4.38;;;;;;;;;;6137673;23;20037;-81
2022/09/26 04:11:52;;;;;;;9.60;4.10;;;;;;;;;;6137392;23;20034;-85
2022/09/26 04:14:18;;;;;;;12.93;4.32;;;;;;;;;;6138051;23;20014;-81
2022/09/26 04:16:45;;;;;;;8.27;4.18;;;;;;;;;;6136059;23;20030;-82
2022/09/26 04:19:12;;;;;;;8.05;3.80;;;;;;;;;;6138688;23;20742;-83
2022/09/26 04:21:39;;;;;;;8.40;3.28;;;;;;;;;;6164904;23;20117;-80
2022/09/26 04:24:13;;;;;;;6.30;3.33;;;;;;;;;;6164462;23;20033;-80
2022/09/26 04:26:40;;;;;;;12.80;4.13;;;;;;;;;;6140140;23;20024;-80
2022/09/26 04:29:06;;;;;;;7.80;3.67;;;;;;;;;;6140633;23;20022;-85
2022/09/26 04:31:35;;;;;;;8.02;3.35;;;;;;;;;;6139097;23;20029;-84
2022/09/26 04:34:03;;;;;;;8.57;3.53;;;;;;;;;;6165746;23;20021;-83
2022/09/26 04:36:30;;;;;;;7.70;3.10;;;;;;;;;;6140176;23;20025;-79
2022/09/26 04:38:59;;;;;;;8.23;3.38;;;;;;;;;;6163839;23;20085;-80
2022/09/26 04:41:26;;;;;;;7.68;2.95;;;;;;;;;;6164699;23;20024;-83
2022/09/26 04:43:53;;;;;;;9.82;3.80;;;;;;;;;;6164968;23;20050;-80
2022/09/26 04:46:21;;;;;;;6.35;3.20;;;;;;;;;;6165302;23;20018;-83
2022/09/26 04:48:54;;;;;;;8.70;3.00;;;;;;;;;;6141426;23;20028;-81
2022/09/26 04:51:21;;;;;;;8.63;2.83;;;;;;;;;;6138446;23;20024;-79
2022/09/26 04:53:49;;;;;;;5.70;2.38;;;;;;;;;;6140211;23;20072;-83
2022/09/26 04:56:16;;;;;;;6.28;2.65;;;;;;;;;;6139819;23;20037;-82
2022/09/26 04:58:45;;;;;;;6.05;2.47;;;;;;;;;;6165080;23;20022;-82
2022/09/26 05:01:13;;;;;;;7.20;2.50;;;;;;;;;;6139121;23;20046;-79
2022/09/26 05:03:40;;;;;;;7.18;2.78;;;;;;;;;;6138879;23;20050;-80
2022/09/26 05:06:08;;;;;;;6.88;2.55;;;;;;;;;;6176687;23;20022;-81
2022/09/26 05:08:39;;;;;;;6.78;2.75;;;;;;;;;;6193570;23;20036;-79
2022/09/26 05:11:08;;;;;;;7.85;2.78;;;;;;;;;;6192270;23;20021;-80
2022/09/26 05:13:35;;;;;;;7.75;2.60;;;;;;;;;;6193022;23;20132;-84
2022/09/26 05:16:02;;;;;;;7.32;2.65;;;;;;;;;;6192421;23;20010;-82
2022/09/26 05:18:29;;;;;;;6.32;2.65;;;;;;;;;;6192117;23;20045;-81
2022/09/26 05:20:55;;;;;;;7.47;2.67;;;;;;;;;;6191716;23;20030;-81
2022/09/26 05:26:34;;;;;;;6.57;2.20;;;;;;;;;;6193223;23;20022;-79
2022/09/26 05:29:03;;;;;;;9.07;3.10;;;;;;;;;;6179528;23;20033;-80
2022/09/26 05:31:36;;;;;;;9.02;3.53;;;;;;;;;;6191913;23;20056;-84
2022/09/26 05:34:03;;;;;;;8.70;2.85;;;;;;;;;;6191273;23;20049;-79
2022/09/26 05:36:29;;;;;;;8.73;2.60;;;;;;;;;;6191646;23;20025;-82
2022/09/26 05:38:56;;;;;;;5.05;2.13;;;;;;;;;;6190742;23;20485;-80
2022/09/26 05:41:22;;;;;;;8.40;2.65;;;;;;;;;;6190507;23;20026;-83
2022/09/26 05:43:48;;;;;;;8.43;2.80;;;;;;;;;;6190663;23;20085;-84
2022/09/26 05:46:15;;;;;;;4.93;2.53;;;;;;;;;;6191637;23;20797;-84
2022/09/26 05:48:41;;;;;;;7.20;2.60;;;;;;;;;;6191757;23;20025;-80
2022/09/26 05:51:12;;;;;;;8.73;2.83;;;;;;;;;;6189835;23;20036;-80
2022/09/26 05:53:39;;;;;;;9.90;2.72;;;;;;;;;;6190826;23;20026;-79
2022/09/26 05:56:05;;;;;;;9.55;2.97;;;;;;;;;;6192210;23;20029;-81
2022/09/26 05:58:33;;;;;;;7.55;2.60;;;;;;;;;;6193035;23;20021;-81
2022/09/26 06:01:09;;;;;;;5.43;2.40;;;;;;;;;;6190404;23;20036;-80
2022/09/26 06:03:36;;;;;;;9.70;3.90;;;;;;;;;;6192424;23;20017;-84
2022/09/26 06:06:03;;;;;;;5.85;2.88;;;;;;;;;;6171094;23;20033;-82
2022/09/26 06:08:30;;;;;;;6.00;2.70;;;;;;;;;;6138025;23;20042;-80
2022/09/26 06:11:01;;;;;;;8.55;2.75;;;;;;;;;;6135948;23;20026;-83
2022/09/26 06:13:28;;;;;;;5.10;2.47;;;;;;;;;;6136275;23;20026;-82
2022/09/26 06:15:55;;;;;;;9.65;2.83;;;;;;;;;;6134731;23;20025;-83
2022/09/26 06:18:21;;;;;;;6.93;2.50;;;;;;;;;;6161601;23;20025;-82
2022/09/26 06:20:47;;;;;;;8.60;2.58;;;;;;;;;;6136187;23;20018;-81
2022/09/26 06:23:14;;;;;;;5.28;2.20;;;;;;;;;;6161540;23;20778;-80
2022/09/26 06:25:41;;;;;;;5.30;2.58;;;;;;;;;;6163654;23;20482;-80
2022/09/26 06:28:07;;;;;;;7.13;2.47;;;;;;;;;;6163853;23;20025;-83
2022/09/26 06:30:33;;;;;;;7.35;2.50;;;;;;;;;;6136567;23;20021;-80
2022/09/26 06:33:00;;;;;;;8.95;2.47;;;;;;;;;;6135522;23;20030;-81
2022/09/26 06:35:26;;;;;;;6.85;2.80;;;;;;;;;;6134345;23;20869;-81
2022/09/26 06:37:53;;;;;;;7.38;2.63;;;;;;;;;;6136074;23;20037;-80
2022/09/26 06:40:19;;;;;;;7.28;2.95;;;;;;;;;;6136703;23;20029;-80
2022/09/26 06:42:45;;;;;;;6.70;2.40;;;;;;;;;;6136524;23;20046;-83
2022/09/26 06:45:12;;;;;;;7.28;2.70;;;;;;;;;;6135552;23;20034;-83
2022/09/26 06:47:38;;;;;;;8.85;2.42;;;;;;;;;;6161526;23;20037;-82
2022/09/26 06:50:05;;;;;;;6.28;2.60;;;;;;;;;;6136611;23;20072;-80
2022/09/26 06:52:33;;;;;;;6.97;2.55;;;;;;;;;;6163660;23;20041;-80
2022/09/26 06:55:01;;;;;;;7.55;2.70;;;;;;;;;;6163443;23;20030;-81
2022/09/26 06:57:28;;;;;;;6.53;2.75;;;;;;;;;;6138036;23;20030;-80
2022/09/26 06:59:55;;;;;;;8.50;2.85;;;;;;;;;;6137534;23;20029;-80
2022/09/26 07:02:25;;;;;;;8.65;2.53;;;;;;;;;;6136873;23;20014;-83
2022/09/26 07:04:51;;;;;;;9.57;2.75;;;;;;;;;;6160689;23;20026;-82
2022/09/26 07:07:17;;;;;;;7.32;2.70;;;;;;;;;;6136192;23;20017;-82
2022/09/26 07:09:44;;;;;;;8.23;2.63;;;;;;;;;;6137382;23;20837;-81
2022/09/26 07:12:13;;;;;;;5.00;2.63;;;;;;;;;;6136124;23;20034;-80
2022/09/26 07:14:41;;;;;;;;;;;;;;;;;;6137128;23;20101;-83
2022/09/26 07:17:12;;;;;;;8.35;2.80;;;;;;;;;;6161201;23;45164;-84
2022/09/26 07:19:38;;;;;;;7.55;2.60;;;;;;;;;;6136986;23;20037;-81
2022/09/26 07:22:06;;;;;;;5.40;2.83;;;;;;;;;;6136549;23;20061;-81
2022/09/26 07:24:33;;;;;;;5.35;2.55;;;;;;;;;;6137435;23;20021;-86
2022/09/26 07:27:00;;;;;;;8.60;2.60;;;;;;;;;;6137037;23;20049;-87
2022/09/26 07:29:27;;;;;;;6.40;2.25;;;;;;;;;;6136609;23;20018;-85
2022/09/26 07:31:53;;;;;;;8.27;2.55;;;;;;;;;;6163037;23;20022;-83
2022/09/26 07:34:23;;;;;;;7.20;3.08;;;;;;;;;;6162092;23;20739;-82
2022/09/26 07:36:53;;;;;;;10.02;2.90;;;;;;;;;;6161303;23;20092;-84
2022/09/26 07:39:19;;;;;;;5.30;2.47;;;;;;;;;;6161211;23;20050;-82
2022/09/26 07:41:45;;;;;;;7.25;3.20;;;;;;;;;;6137508;23;20034;-83
2022/09/26 07:44:13;;;;;;;8.30;2.92;;;;;;;;;;6138187;23;20018;-85
2022/09/26 07:52:29;;;;;;;9.50;2.83;;;;;;;;;;6164570;23;20026;-79
2022/09/26 07:54:55;;;;;;;5.20;2.70;;;;;;;;;;6137789;23;20878;-80
2022/09/26 07:57:22;;;;;;;6.70;2.38;;;;;;;;;;6136311;23;20026;-81
2022/09/26 07:59:49;;;;;;;11.32;3.10;;;;;;;;;;6159833;23;20077;-80
2022/09/26 08:02:20;;;;;;;9.27;2.88;;;;;;;;;;6163011;23;20073;-82
2022/09/26 08:04:46;;;;;;;8.93;3.15;;;;;;;;;;6135921;23;20014;-81
2022/09/26 08:07:13;;;;;;;7.13;2.30;;;;;;;;;;6163261;23;20033;-80
2022/09/26 08:09:40;;;;;;;9.73;2.72;;;;;;;;;;6135314;23;20030;-82
2022/09/26 08:12:06;;;;;;;8.43;2.58;;;;;;;;;;6134549;23;20858;-80
2022/09/26 08:14:32;;;;;;;8.35;2.40;;;;;;;;;;6161839;23;20074;-81
2022/09/26 08:16:58;;;;;;;6.72;2.58;;;;;;;;;;6159078;23;20030;-80
2022/09/26 08:19:25;;;;;;;7.10;2.47;;;;;;;;;;6162304;23;20030;-80
2022/09/26 08:21:51;;;;;;;8.88;2.40;;;;;;;;;;6137814;23;20085;-81
2022/09/26 08:24:17;;;;;;;6.35;2.30;;;;;;;;;;6140786;23;20018;-82
2022/09/26 08:26:44;;;;;;;8.52;2.70;;;;;;;;;;6142196;23;20030;-81
2022/09/26 08:29:11;;;;;;;10.07;2.85;;;;;;;;;;6138770;23;20021;-82
2022/09/26 08:31:37;;;;;;;7.82;2.50;;;;;;;;;;6138064;23;20017;-80
2022/09/26 08:34:04;;;;;;;6.80;2.60;;;;;;;;;;6140386;23;20036;-81
2022/09/26 08:36:31;;;;;;;6.80;2.33;;;;;;;;;;6165654;23;20101;-81
2022/09/26 08:38:58;;;;;;;7.28;2.70;;;;;;;;;;6136621;23;20030;-81
2022/09/26 08:41:34;;;;;;;6.80;2.60;;;;;;;;;;6138803;23;20026;-81
2022/09/26 08:44:21;;;;;;;7.50;2.35;;;;;;;;;;6163905;23;20041;-81
2022/09/26 08:47:04;;;;;;;9.40;3.08;;;;;;;;;;6165740;23;20033;-81
2022/09/26 08:49:43;;;;;;;8.02;3.10;;;;;;;;;;6139608;23;20017;-81
2022/09/26 08:52:12;;;;;;;10.93;3.00;;;;;;;;;;6139968;23;20026;-81
2022/09/26 08:54:41;;;;;;;6.43;2.92;;;;;;;;;;6139073;23;20022;-81
2022/09/26 08:57:19;;;;;;;9.50;3.08;;;;;;;;;;6162704;23;20107;-80
2022/09/26 08:59:46;;;;;;;8.73;3.25;;;;;;;;;;6138961;23;20029;-81
2022/09/26 09:02:18;;;;;;;10.00;3.22;;;;;;;;;;6140111;23;20060;-80
2022/09/26 09:04:51;;;;;;;9.60;3.15;;;;;;;;;;6134214;23;20018;-80
2022/09/26 09:07:20;;;;;;;8.57;3.55;;;;;;;;;;6132765;23;20070;-81
2022/09/26 09:09:47;;;;;;;10.52;3.17;;;;;;;;;;6138163;23;20057;-80
2022/09/26 09:12:43;;;;;;;9.15;2.75;;;;;;;;;;6140247;23;20014;-79
2022/09/26 09:15:18;;;;;;;8.20;3.25;;;;;;;;;;6118546;23;21135;-81
2022/09/26 09:18:00;;;;;;;11.80;3.63;;;;;;;;;;6158453;23;20030;-81
2022/09/26 09:20:45;;;;;;;10.45;2.88;;;;;;;;;;6135631;23;20022;-81
2022/09/26 09:23:14;;;;;;;8.13;3.65;;;;;;;;;;6135747;23;21372;-81
2022/09/26 09:25:45;;;;;;;8.88;3.22;;;;;;;;;;6133987;23;20034;-81
2022/09/26 09:28:11;;;;;;;;;;;;;;;;;;6133350;23;20033;-81
2022/09/26 09:30:38;;;;;;;10.77;3.13;;;;;;;;;;6132097;23;48530;-82
2022/09/26 09:33:08;;;;;;;11.65;3.28;;;;;;;;;;6133699;23;20033;-82
2022/09/26 09:35:35;;;;;;;;;;;;;;;;;;6159997;23;20045;-82
2022/09/26 09:38:01;;;;;;;8.10;3.25;;;;;;;;;;6131162;23;46846;-81
2022/09/26 09:40:33;;;;;;;11.13;3.60;;;;;;;;;;6134405;23;20026;-81
2022/09/26 09:43:04;;;;;;;7.15;3.13;;;;;;;;;;6133288;23;20014;-81
2022/09/26 09:45:45;;;;;;;13.07;3.70;;;;;;;;;;6158951;23;20103;-81
2022/09/26 09:48:12;;;;;;;7.75;3.60;;;;;;;;;;6133576;23;20017;-81
2022/09/26 09:50:59;;;;;;;8.02;3.50;;;;;;;;;;6135643;23;20025;-80
2022/09/26 09:53:28;;;;;;;9.00;3.08;;;;;;;;;;6136764;23;20022;-80
2022/09/26 09:56:09;;;;;;;8.88;3.08;;;;;;;;;;6133646;23;20030;-80
2022/09/26 09:58:48;;;;;;;10.32;3.40;;;;;;;;;;6134748;23;20034;-80
2022/09/26 10:01:20;;;;;;;9.25;3.30;;;;;;;;;;6133159;23;20026;-80
2022/09/26 10:03:54;;;;;;;7.78;3.10;;;;;;;;;;6157750;23;20018;-80
2022/09/26 10:06:21;;;;;;;8.45;3.35;;;;;;;;;;6161981;23;20041;-81
2022/09/26 10:09:15;;;;;;;9.77;3.30;;;;;;;;;;6161902;23;20081;-81
2022/09/26 10:12:11;;;;;;;10.93;3.13;;;;;;;;;;6138133;23;20033;-80
2022/09/26 10:15:00;;;;;;;7.45;2.90;;;;;;;;;;6135274;23;20030;-80
2022/09/26 10:17:28;;;;;;;6.93;3.30;;;;;;;;;;6137029;23;20034;-80
2022/09/26 10:19:54;;;;;;;6.63;2.80;;;;;;;;;;6136497;23;20116;-80
2022/09/26 10:22:36;;;;;;;6.85;3.33;;;;;;;;;;6134851;23;20495;-78
2022/09/26 10:25:07;;;;;;;8.15;3.08;;;;;;;;;;6132151;23;20077;-79
2022/09/26 10:27:35;;;;;;;8.57;3.03;;;;;;;;;;6131166;23;20070;-82
2022/09/26 10:30:17;;;;;;;10.10;3.55;;;;;;;;;;6157785;23;20069;-79
2022/09/26 10:32:46;;;;;;;9.50;3.40;;;;;;;;;;6129787;23;20022;-80
2022/09/26 10:35:20;;;;;;;10.70;3.47;;;;;;;;;;6128701;23;20033;-81
2022/09/26 10:37:58;;;;;;;7.13;3.40;;;;;;;;;;6130151;23;20541;-82
2022/09/26 10:40:47;;;;;;;12.00;4.07;;;;;;;;;;6130520;23;20030;-81
2022/09/26 10:43:19;;;;;;;8.02;4.07;;;;;;;;;;6154959;23;20026;-82
2022/09/26 10:45:47;;;;;;;8.55;3.97;;;;;;;;;;6155128;23;20049;-81
2022/09/26 10:48:17;;;;;;;7.30;3.72;;;;;;;;;;6154511;23;20034;-81
2022/09/26 10:50:44;;;;;;;;;;;;;;;;;;6128339;23;20026;-81
2022/09/26 10:53:12;;;;;;;10.52;3.90;;;;;;;;;;6128671;23;47583;-81
2022/09/26 10:55:55;;;;;;;9.95;3.63;;;;;;;;;;6154667;23;20030;-81
2022/09/26 10:58:26;;;;;;;8.45;3.55;;;;;;;;;;6155232;23;20030;-80
2022/09/26 11:00:53;;;;;;;8.32;3.50;;;;;;;;;;6128349;23;20034;-81
2022/09/26 11:03:23;;;;;;;9.43;3.90;;;;;;;;;;6128484;23;20434;-81
2022/09/26 11:05:55;;;;;;;7.63;3.95;;;;;;;;;;6159658;23;20029;-80
2022/09/26 11:08:27;;;;;;;10.82;3.53;;;;;;;;;;6183274;23;20025;-81
2022/09/26 11:10:54;;;;;;;8.63;3.80;;;;;;;;;;6184439;23;20036;-81
2022/09/26 11:13:22;;;;;;;8.35;3.53;;;;;;;;;;6184075;23;20529;-81
2022/09/26 11:15:52;;;;;;;6.55;3.70;;;;;;;;;;6184916;23;20032;-82
2022/09/26 11:18:24;;;;;;;6.90;3.97;;;;;;;;;;6187215;23;20037;-81
2022/09/26 11:20:52;;;;;;;8.15;4.10;;;;;;;;;;6184439;23;20052;-80
2022/09/26 11:23:27;;;;;;;7.07;3.67;;;;;;;;;;6182421;23;20032;-83
2022/09/26 11:26:01;;;;;;;9.10;4.00;;;;;;;;;;6181974;23;20029;-83
2022/09/26 11:28:33;;;;;;;7.15;3.80;;;;;;;;;;6181960;23;20067;-83
2022/09/26 11:31:04;;;;;;;8.05;3.55;;;;;;;;;;6182984;23;20031;-84
2022/09/26 11:33:30;;;;;;;7.90;3.80;;;;;;;;;;6183481;23;20030;-83
2022/09/26 11:36:02;;;;;;;7.20;3.58;;;;;;;;;;6183164;23;20058;-83
2022/09/26 11:38:40;;;;;;;8.07;3.40;;;;;;;;;;6184133;23;20026;-83
2022/09/26 11:41:07;;;;;;;7.65;3.80;;;;;;;;;;6183228;23;20033;-83
2022/09/26 11:43:46;;;;;;;5.90;3.50;;;;;;;;;;6183776;23;20029;-83
2022/09/26 11:46:22;;;;;;;7.88;3.65;;;;;;;;;;6184516;23;20018;-82
2022/09/26 11:48:48;;;;;;;7.68;3.33;;;;;;;;;;6184035;23;20013;-83
2022/09/26 11:51:18;;;;;;;8.32;3.60;;;;;;;;;;6182923;23;20509;-83
2022/09/26 11:54:05;;;;;;;6.78;3.20;;;;;;;;;;6185085;23;20108;-83
2022/09/26 11:56:38;;;;;;;7.85;3.58;;;;;;;;;;6185448;23;20719;-83
2022/09/26 11:59:19;;;;;;;8.70;3.88;;;;;;;;;;6183041;23;20030;-83
2022/09/26 12:01:46;;;;;;;;;;;;;;;;;;6184559;23;20845;-83
2022/09/26 12:04:31;;;;;;;7.22;3.83;;;;;;;;;;6182307;23;43722;-83
2022/09/26 12:07:06;;;;;;;6.38;3.53;;;;;;;;;;6185197;23;20493;-83
2022/09/26 12:09:51;;;;;;;9.05;3.60;;;;;;;;;;6185619;23;20036;-83
2022/09/26 12:12:35;;;;;;;9.25;3.70;;;;;;;;;;6183282;23;20022;-82
2022/09/26 12:15:25;;;;;;;8.68;4.03;;;;;;;;;;6184850;23;20025;-83
2022/09/26 12:18:02;;;;;;;7.68;3.78;;;;;;;;;;6185371;23;20025;-83
2022/09/26 12:20:31;;;;;;;6.57;3.72;;;;;;;;;;6183640;23;20028;-82
2022/09/26 12:23:19;;;;;;;6.50;4.00;;;;;;;;;;6183205;23;20025;-82
2022/09/26 12:25:50;;;;;;;9.80;4.35;;;;;;;;;;6186751;23;20018;-85
2022/09/26 12:28:25;;;;;;;7.95;4.10;;;;;;;;;;6192667;23;20032;-84
2022/09/26 12:31:04;;;;;;;8.38;4.40;;;;;;;;;;6193289;23;20030;-86
2022/09/26 12:33:52;;;;;;;9.05;4.63;;;;;;;;;;6194928;23;20052;-82
2022/09/26 12:36:21;;;;;;;7.75;4.35;;;;;;;;;;6196473;23;20022;-84
2022/09/26 12:38:48;;;;;;;7.43;3.88;;;;;;;;;;6196990;23;20041;-83
2022/09/26 12:41:22;;;;;;;6.63;4.05;;;;;;;;;;6201332;23;20017;-83
2022/09/26 12:43:51;;;;;;;7.97;4.90;;;;;;;;;;6195840;23;20029;-82
2022/09/26 12:46:18;;;;;;;6.87;4.23;;;;;;;;;;6197165;23;20017;-82
2022/09/26 12:49:06;;;;;;;7.32;3.80;;;;;;;;;;6198008;23;20030;-86
2022/09/26 12:51:45;;;;;;;6.57;3.80;;;;;;;;;;6197959;23;20045;-82
2022/09/26 12:54:19;;;;;;;7.32;4.18;;;;;;;;;;6197407;23;20026;-84
2022/09/26 12:56:50;;;;;;;7.82;3.75;;;;;;;;;;6196026;23;20069;-86
2022/09/26 12:59:30;;;;;;;6.18;3.25;;;;;;;;;;6197185;23;20035;-82
2022/09/26 13:02:12;;;;;;;5.95;3.63;;;;;;;;;;6195832;23;20021;-83
2022/09/26 13:04:49;;;;;;;6.15;3.83;;;;;;;;;;6193962;23;20017;-85
2022/09/26 13:07:35;;;;;;;5.93;3.40;;;;;;;;;;6167770;23;20009;-83
2022/09/26 13:10:05;;;;;;;6.30;3.35;;;;;;;;;;6167499;23;20094;-82
2022/09/26 13:12:44;;;;;;;5.45;3.30;;;;;;;;;;6140930;23;20076;-83
2022/09/26 13:15:19;;;;;;;4.82;2.90;;;;;;;;;;6165916;23;20020;-83
2022/09/26 13:17:52;;;;;;;4.93;3.10;;;;;;;;;;6166565;23;20053;-82
2022/09/26 13:20:26;;;;;;;4.95;2.95;;;;;;;;;;6166419;23;20029;-81
2022/09/26 13:23:06;;;;;;;5.20;2.88;;;;;;;;;;6166244;23;20025;-81
2022/09/26 13:25:48;;;;;;;5.70;3.03;;;;;;;;;;6139434;23;20711;-82
2022/09/26 13:28:18;;;;;;;4.25;2.40;;;;;;;;;;6138295;23;20925;-83
2022/09/26 13:30:48;;;;;;;7.10;2.83;;;;;;;;;;6137864;23;20077;-83
2022/09/26 13:33:33;;;;;;;5.05;3.00;;;;;;;;;;6138921;23;20037;-82
2022/09/26 13:36:00;;;;;;;5.47;2.63;;;;;;;;;;6141374;23;20022;-82
2022/09/26 13:38:28;;;;;;;4.43;2.70;;;;;;;;;;6167882;23;20025;-82
2022/09/26 13:41:13;;;;;;;5.00;3.00;;;;;;;;;;6141896;23;20038;-82
2022/09/26 13:44:02;;;;;;;5.53;3.20;;;;;;;;;;6143955;23;20021;-82
2022/09/26 13:46:47;;;;;;;6.78;3.05;;;;;;;;;;6142418;23;20030;-82
2022/09/26 13:49:33;;;;;;;5.75;2.92;;;;;;;;;;6141998;23;20016;-82
2022/09/26 13:52:18;;;;;;;4.97;3.30;;;;;;;;;;6169330;23;20018;-82
2022/09/26 13:54:47;;;;;;;6.18;3.60;;;;;;;;;;6142585;23;20026;-83
2022/09/26 13:57:33;;;;;;;5.63;3.45;;;;;;;;;;6167685;23;20025;-82
2022/09/26 14:00:11;;;;;;;5.55;3.55;;;;;;;;;;6142966;23;20018;-82
2022/09/26 14:02:38;;;;;;;6.55;3.72;;;;;;;;;;6167653;23;20913;-82
2022/09/26 14:05:16;;;;;;;7.13;4.50;;;;;;;;;;6155634;23;20025;-82
2022/09/26 14:10:31;;;;;;;8.80;5.32;;;;;;;;;;6200440;23;20014;-81
2022/09/26 14:13:05;;;;;;;10.65;8.57;;;;;;;;;;6198904;23;20024;-84
2022/09/26 14:15:47;;;;;;;8.98;5.60;;;;;;;;;;6201259;23;20098;-84
2022/09/26 14:18:43;;;;;;;10.93;8.05;;;;;;;;;;6201189;23;20325;-83
2022/09/26 14:21:11;;;;;;;5.32;3.90;;;;;;;;;;6181893;23;20022;-85
2022/09/26 14:23:42;;;;;;;11.05;7.55;;;;;;;;;;6198751;23;20036;-84
2022/09/26 14:26:09;;;;;;;7.85;5.25;;;;;;;;;;6200298;23;20061;-82
2022/09/26 14:28:36;;;;;;;7.53;3.72;;;;;;;;;;6199115;23;20017;-81
2022/09/26 14:31:11;;;;;;;5.35;3.58;;;;;;;;;;6197902;23;20025;-83
2022/09/26 14:33:38;;;;;;;5.38;3.00;;;;;;;;;;6200081;23;20026;-82
2022/09/26 14:36:17;;;;;;;5.07;2.88;;;;;;;;;;6200559;23;20073;-81
2022/09/26 14:38:46;;;;;;;4.68;3.17;;;;;;;;;;6201144;23;20040;-83
2022/09/26 14:41:17;;;;;;;6.50;3.78;;;;;;;;;;6200874;23;20021;-84
2022/09/26 14:43:44;;;;;;;5.20;3.67;;;;;;;;;;6200305;23;20012;-81
2022/09/26 14:46:18;;;;;;;5.00;3.05;;;;;;;;;;6200901;23;20020;-84
2022/09/26 14:48:45;;;;;;;5.78;3.90;;;;;;;;;;6199641;23;20028;-86
2022/09/26 14:51:14;;;;;;;5.75;3.90;;;;;;;;;;6200230;23;20033;-85
2022/09/26 14:53:46;;;;;;;5.90;3.70;;;;;;;;;;6199594;23;20017;-81
2022/09/26 14:56:28;;;;;;;6.30;3.78;;;;;;;;;;6200207;23;20053;-83
2022/09/26 14:59:24;;;;;;;6.97;4.30;;;;;;;;;;6199964;23;20013;-81
2022/09/26 15:01:51;;;;;;;6.38;3.92;;;;;;;;;;6201904;23;20025;-82
2022/09/26 15:04:18;;;;;;;5.72;3.80;;;;;;;;;;6201058;23;20033;-84
2022/09/26 15:06:50;;;;;;;7.90;4.00;;;;;;;;;;6200882;23;20018;-83
2022/09/26 15:09:24;;;;;;;5.82;4.00;;;;;;;;;;6223575;23;20022;-84
2022/09/26 15:11:54;;;;;;;8.68;4.93;;;;;;;;;;6198499;23;20029;-83
2022/09/26 15:14:24;;;;;;;8.48;4.85;;;;;;;;;;6200637;23;20022;-81
2022/09/26 15:16:51;;;;;;;;;;;;;;;;;;6201091;23;20022;-82
2022/09/26 15:19:26;;;;;;;8.10;5.32;;;;;;;;;;6200751;23;47414;-82